createdAt,value
2017-06-27T00:02:15.726Z,50.20
2017-06-27T00:04:44.023Z,50.00
2017-06-27T00:07:12.301Z,49.90
2017-06-27T00:09:39.818Z,49.90
2017-06-27T00:12:07.326Z,49.90
2017-06-27T00:14:34.845Z,50.70
2017-06-27T00:17:02.364Z,50.60
2017-06-27T00:19:29.910Z,50.40
2017-06-27T00:21:58.357Z,50.90
2017-06-27T00:24:25.945Z,50.20
2017-06-27T00:26:53.487Z,50.10
2017-06-27T00:29:21.761Z,50.10
2017-06-27T00:31:50.095Z,49.90
2017-06-27T00:34:17.660Z,49.90
2017-06-27T00:36:45.213Z,50.10
2017-06-27T00:39:12.718Z,50.50
2017-06-27T00:41:41.033Z,50.10
2017-06-27T00:44:08.570Z,50.00
2017-06-27T00:46:36.893Z,50.70
2017-06-27T00:49:04.434Z,50.60
2017-06-27T00:51:31.994Z,51.50
2017-06-27T00:53:59.514Z,50.40
2017-06-27T00:56:27.802Z,50.80
2017-06-27T00:58:56.071Z,50.90
2017-06-27T01:01:24.363Z,50.90
2017-06-27T01:03:51.882Z,50.90
2017-06-27T01:06:19.434Z,51.00
2017-06-27T01:08:46.946Z,51.00
2017-06-27T01:11:14.547Z,51.40
2017-06-27T01:13:42.061Z,51.20
2017-06-27T01:16:09.583Z,50.90
2017-06-27T01:18:37.143Z,51.40
2017-06-27T01:21:04.678Z,51.20
2017-06-27T01:23:32.207Z,51.30
2017-06-27T01:25:59.722Z,50.90
2017-06-27T01:28:27.233Z,51.10
2017-06-27T01:30:54.763Z,51.30
2017-06-27T01:33:23.053Z,51.40
2017-06-27T01:35:51.347Z,51.00
2017-06-27T01:38:18.874Z,50.90
2017-06-27T01:40:47.199Z,51.50
2017-06-27T01:43:14.714Z,51.40
2017-06-27T01:45:43.021Z,51.40
2017-06-27T01:48:10.539Z,51.40
2017-06-27T01:50:38.073Z,51.20
2017-06-27T01:53:05.574Z,51.00
2017-06-27T01:55:33.108Z,51.50
2017-06-27T01:58:00.633Z,51.50
2017-06-27T02:00:28.193Z,51.40
2017-06-27T02:02:55.698Z,51.40
2017-06-27T02:05:23.244Z,51.50
2017-06-27T02:07:50.742Z,51.50
2017-06-27T02:10:18.267Z,51.70
2017-06-27T02:12:45.796Z,52.30
2017-06-27T02:15:13.336Z,52.10
2017-06-27T02:17:40.882Z,51.80
2017-06-27T02:20:08.406Z,52.40
2017-06-27T02:22:35.937Z,52.40
2017-06-27T02:25:03.461Z,53.00
2017-06-27T02:27:30.987Z,53.20
2017-06-27T02:29:58.489Z,52.50
2017-06-27T02:32:26.056Z,52.60
2017-06-27T02:34:53.569Z,52.60
2017-06-27T02:37:21.098Z,52.80
2017-06-27T02:39:48.619Z,52.90
2017-06-27T02:42:16.163Z,52.40
2017-06-27T02:44:44.442Z,52.30
2017-06-27T02:47:12.726Z,52.90
2017-06-27T02:49:40.997Z,53.10
2017-06-27T02:52:09.274Z,53.10
2017-06-27T02:54:37.545Z,52.80
2017-06-27T02:57:05.833Z,53.20
2017-06-27T02:59:34.109Z,52.80
2017-06-27T03:02:02.393Z,52.80
2017-06-27T03:04:29.950Z,52.80
2017-06-27T03:06:57.474Z,52.90
2017-06-27T03:09:25.021Z,53.00
2017-06-27T03:11:52.583Z,52.90
2017-06-27T03:14:20.112Z,52.90
2017-06-27T03:16:47.644Z,53.10
2017-06-27T03:19:15.933Z,52.80
2017-06-27T03:21:43.462Z,52.70
2017-06-27T03:24:10.953Z,52.60
2017-06-27T03:26:38.490Z,52.90
2017-06-27T03:29:06.810Z,53.10
2017-06-27T03:31:34.346Z,53.10
2017-06-27T03:34:01.864Z,53.10
2017-06-27T03:36:29.387Z,53.10
2017-06-27T03:38:56.914Z,53.00
2017-06-27T03:41:24.445Z,53.20
2017-06-27T03:43:51.939Z,53.30
2017-06-27T03:46:19.507Z,53.00
2017-06-27T03:48:47.029Z,53.30
2017-06-27T03:51:14.556Z,53.80
2017-06-27T03:53:42.099Z,53.00
2017-06-27T03:56:09.601Z,52.90
2017-06-27T03:58:37.138Z,53.10
2017-06-27T04:01:04.654Z,52.80
2017-06-27T04:03:32.162Z,52.70
2017-06-27T04:05:59.677Z,52.70
2017-06-27T04:08:27.214Z,52.80
2017-06-27T04:10:55.493Z,53.00
2017-06-27T04:13:23.080Z,53.00
2017-06-27T04:15:50.589Z,52.90
2017-06-27T04:18:18.119Z,52.30
2017-06-27T04:20:45.638Z,52.90
2017-06-27T04:23:13.151Z,53.20
2017-06-27T04:25:40.654Z,52.90
2017-06-27T04:28:08.979Z,52.70
2017-06-27T04:30:36.503Z,52.70
2017-06-27T04:33:04.065Z,52.70
2017-06-27T04:35:31.585Z,52.70
2017-06-27T04:37:59.121Z,52.70
2017-06-27T04:40:26.645Z,52.10
2017-06-27T04:42:54.202Z,52.30
2017-06-27T04:45:21.709Z,51.80
2017-06-27T04:47:49.269Z,52.30
2017-06-27T04:50:16.792Z,52.60
2017-06-27T04:52:44.324Z,52.30
2017-06-27T04:55:11.859Z,52.10
2017-06-27T04:57:39.418Z,51.70
2017-06-27T05:00:06.945Z,51.90
2017-06-27T05:02:34.461Z,52.00
2017-06-27T05:05:02.767Z,51.90
2017-06-27T05:07:30.324Z,51.80
2017-06-27T05:09:57.830Z,51.90
2017-06-27T05:12:25.389Z,51.80
2017-06-27T05:14:52.911Z,51.80
2017-06-27T05:17:20.441Z,51.70
2017-06-27T05:19:48.722Z,52.00
2017-06-27T05:22:16.270Z,52.00
2017-06-27T05:24:44.560Z,51.80
2017-06-27T05:27:12.858Z,51.30
2017-06-27T05:29:40.404Z,51.30
2017-06-27T05:32:07.938Z,51.40
2017-06-27T05:34:36.269Z,51.30
2017-06-27T05:37:03.770Z,50.70
2017-06-27T05:39:31.290Z,50.80
2017-06-27T05:41:58.798Z,51.00
2017-06-27T05:44:27.126Z,51.10
2017-06-27T05:46:54.630Z,51.10
2017-06-27T05:49:22.169Z,51.20
2017-06-27T05:51:49.746Z,51.40
2017-06-27T05:54:17.277Z,51.30
2017-06-27T05:56:44.782Z,51.00
2017-06-27T05:59:13.082Z,50.40
2017-06-27T06:01:40.654Z,50.40
2017-06-27T06:04:08.218Z,50.40
2017-06-27T06:06:35.737Z,50.40
2017-06-27T06:09:03.262Z,49.90
2017-06-27T06:11:30.778Z,50.00
2017-06-27T06:13:58.304Z,49.20
2017-06-27T06:16:25.814Z,49.10
2017-06-27T06:18:53.349Z,48.80
2017-06-27T06:21:20.873Z,48.80
2017-06-27T06:23:48.398Z,48.70
2017-06-27T06:26:15.921Z,48.70
2017-06-27T06:28:44.213Z,48.80
2017-06-27T06:31:11.738Z,48.70
2017-06-27T06:33:39.273Z,49.50
2017-06-27T06:36:06.823Z,49.00
2017-06-27T06:38:34.347Z,49.20
2017-06-27T06:41:01.918Z,49.40
2017-06-27T06:43:29.509Z,50.00
2017-06-27T06:45:57.035Z,49.50
2017-06-27T06:48:24.557Z,49.00
2017-06-27T06:50:52.845Z,49.70
2017-06-27T06:53:21.190Z,49.00
2017-06-27T06:55:52.093Z,49.00
2017-06-27T06:58:21.628Z,48.10
2017-06-27T07:00:49.130Z,48.60
2017-06-27T07:03:17.443Z,47.70
2017-06-27T07:06:05.168Z,47.60
2017-06-27T07:14:18.222Z,47.20
2017-06-27T07:16:46.916Z,46.70
2017-06-27T07:19:17.622Z,47.40
2017-06-27T07:21:45.147Z,46.20
2017-06-27T07:24:12.678Z,45.60
2017-06-27T07:26:40.222Z,45.30
2017-06-27T07:29:07.777Z,45.40
2017-06-27T07:31:35.303Z,45.00
2017-06-27T07:34:02.827Z,44.50
2017-06-27T07:36:30.359Z,44.60
2017-06-27T07:38:57.929Z,43.90
2017-06-27T07:41:25.456Z,43.60
2017-06-27T07:43:53.826Z,43.30
2017-06-27T07:46:21.343Z,43.20
2017-06-27T07:48:48.906Z,43.60
2017-06-27T07:51:16.416Z,44.30
2017-06-27T07:53:43.967Z,43.90
2017-06-27T07:56:12.257Z,43.80
2017-06-27T07:58:39.779Z,43.80
2017-06-27T08:01:07.329Z,43.10
2017-06-27T08:03:34.875Z,43.30
2017-06-27T08:06:02.426Z,43.80
2017-06-27T08:08:29.939Z,42.80
2017-06-27T08:10:58.265Z,42.80
2017-06-27T08:13:25.770Z,42.70
2017-06-27T08:15:53.335Z,41.90
2017-06-27T08:18:21.614Z,41.90
2017-06-27T08:20:49.166Z,41.60
2017-06-27T08:23:16.695Z,41.40
2017-06-27T08:25:44.247Z,40.90
2017-06-27T08:28:11.750Z,41.30
2017-06-27T08:30:40.063Z,42.00
2017-06-27T08:33:07.619Z,41.30
2017-06-27T08:35:35.149Z,41.10
2017-06-27T08:38:02.673Z,41.60
2017-06-27T08:40:30.283Z,42.00
2017-06-27T08:42:57.836Z,42.40
2017-06-27T08:45:25.461Z,42.60
2017-06-27T08:47:52.998Z,43.40
2017-06-27T08:50:20.657Z,43.40
2017-06-27T08:52:48.188Z,43.70
2017-06-27T08:55:15.733Z,43.00
2017-06-27T08:57:43.285Z,43.30
2017-06-27T09:00:10.823Z,43.10
2017-06-27T09:02:38.329Z,43.50
2017-06-27T09:05:05.902Z,43.50
2017-06-27T09:07:33.448Z,43.70
2017-06-27T09:10:00.992Z,44.10
2017-06-27T09:12:29.294Z,43.80
2017-06-27T09:14:56.834Z,43.70
2017-06-27T09:17:24.386Z,44.10
2017-06-27T09:19:51.932Z,42.80
2017-06-27T09:22:19.454Z,43.10
2017-06-27T09:24:46.981Z,43.10
2017-06-27T09:27:15.283Z,41.40
2017-06-27T09:29:42.815Z,41.30
2017-06-27T09:32:11.082Z,40.50
2017-06-27T09:34:38.609Z,40.50
2017-06-27T09:37:06.186Z,39.30
2017-06-27T09:39:33.686Z,38.20
2017-06-27T09:42:01.241Z,38.00
2017-06-27T09:44:28.811Z,40.00
2017-06-27T09:46:56.382Z,39.30
2017-06-27T09:49:23.894Z,40.00
2017-06-27T09:51:51.445Z,39.40
2017-06-27T09:54:19.005Z,39.30
2017-06-27T09:56:46.546Z,39.60
2017-06-27T09:59:14.072Z,40.60
2017-06-27T10:01:41.639Z,40.40
2017-06-27T10:04:09.164Z,40.20
2017-06-27T10:06:37.470Z,40.60
2017-06-27T10:09:05.058Z,40.60
2017-06-27T10:11:32.602Z,41.10
2017-06-27T10:14:00.138Z,40.90
2017-06-27T10:16:27.674Z,41.10
2017-06-27T10:18:55.202Z,41.30
2017-06-27T10:21:23.033Z,40.00
2017-06-27T10:23:50.578Z,40.00
2017-06-27T10:26:18.110Z,40.00
2017-06-27T10:28:45.626Z,40.30
2017-06-27T10:31:13.169Z,40.50
2017-06-27T10:33:40.679Z,40.50
2017-06-27T10:36:08.215Z,40.40
2017-06-27T10:38:35.740Z,40.20
2017-06-27T10:41:03.263Z,40.40
2017-06-27T10:43:30.791Z,40.50
2017-06-27T10:45:58.379Z,40.20
2017-06-27T10:48:25.882Z,40.10
2017-06-27T10:50:53.399Z,40.00
2017-06-27T10:53:20.911Z,40.70
2017-06-27T10:55:48.467Z,40.40
2017-06-27T10:58:16.024Z,40.00
2017-06-27T11:00:43.550Z,39.90
2017-06-27T11:03:11.077Z,39.00
2017-06-27T11:05:38.666Z,39.20
2017-06-27T11:08:06.203Z,40.10
2017-06-27T11:10:33.741Z,39.40
2017-06-27T11:13:01.286Z,39.90
2017-06-27T11:15:28.786Z,40.30
2017-06-27T11:17:56.361Z,41.10
2017-06-27T11:20:23.890Z,41.30
2017-06-27T11:22:51.449Z,41.00
2017-06-27T11:25:18.975Z,41.70
2017-06-27T11:27:46.500Z,41.70
2017-06-27T11:30:14.045Z,41.70
2017-06-27T11:32:41.611Z,41.30
2017-06-27T11:35:09.171Z,41.70
2017-06-27T11:37:36.707Z,41.60
2017-06-27T11:40:04.219Z,42.40
2017-06-27T11:42:31.760Z,42.70
2017-06-27T11:44:59.259Z,42.50
2017-06-27T11:47:26.812Z,43.20
2017-06-27T11:49:54.343Z,43.10
2017-06-27T11:52:21.921Z,41.60
2017-06-27T11:54:49.438Z,41.70
2017-06-27T11:57:16.998Z,42.30
2017-06-27T11:59:44.941Z,41.40
2017-06-27T12:02:12.478Z,41.80
2017-06-27T12:04:41.755Z,40.70
2017-06-27T12:07:14.276Z,40.20
2017-06-27T12:09:41.794Z,40.10
2017-06-27T12:12:09.334Z,40.00
2017-06-27T12:14:36.865Z,40.10
2017-06-27T12:17:04.466Z,40.90
2017-06-27T12:19:31.997Z,41.70
2017-06-27T12:21:59.551Z,41.30
2017-06-27T12:24:27.104Z,41.20
2017-06-27T12:26:54.671Z,40.60
2017-06-27T12:29:22.193Z,40.20
2017-06-27T12:31:49.706Z,40.30
2017-06-27T12:34:17.219Z,41.00
2017-06-27T12:36:44.765Z,39.40
2017-06-27T12:39:13.060Z,41.00
2017-06-27T12:41:40.613Z,41.00
2017-06-27T12:44:08.142Z,39.70
2017-06-27T12:46:35.702Z,39.60
2017-06-27T12:49:03.205Z,40.10
2017-06-27T12:51:30.726Z,40.70
2017-06-27T12:53:59.026Z,40.20
2017-06-27T12:56:26.566Z,40.10
2017-06-27T12:58:54.875Z,41.40
2017-06-27T13:01:22.443Z,41.40
2017-06-27T13:03:49.974Z,40.70
2017-06-27T13:06:18.254Z,41.00
2017-06-27T13:08:45.805Z,41.00
2017-06-27T13:11:14.077Z,42.70
2017-06-27T13:13:41.605Z,42.80
2017-06-27T13:16:09.114Z,45.40
2017-06-27T13:18:36.698Z,44.60
2017-06-27T13:21:04.230Z,43.90
2017-06-27T13:23:31.768Z,43.20
2017-06-27T13:25:59.306Z,44.20
2017-06-27T13:28:26.854Z,43.40
2017-06-27T13:30:54.399Z,43.10
2017-06-27T13:33:21.909Z,42.50
2017-06-27T13:35:49.434Z,43.00
2017-06-27T13:38:16.950Z,42.70
2017-06-27T13:40:44.465Z,43.10
2017-06-27T13:43:12.019Z,42.90
2017-06-27T13:45:39.573Z,43.60
2017-06-27T13:48:07.105Z,43.70
2017-06-27T13:50:34.635Z,43.90
2017-06-27T13:53:02.191Z,44.20
2017-06-27T13:55:29.729Z,45.20
2017-06-27T13:57:57.282Z,45.20
2017-06-27T14:00:24.839Z,46.50
2017-06-27T14:02:52.407Z,45.70
2017-06-27T14:05:20.694Z,45.70
2017-06-27T14:07:48.219Z,46.00
2017-06-27T14:10:15.746Z,46.20
2017-06-27T14:12:43.588Z,46.60
2017-06-27T14:15:11.619Z,46.60
2017-06-27T14:17:39.251Z,45.80
2017-06-27T14:20:06.780Z,45.90
2017-06-27T14:22:34.368Z,45.60
2017-06-27T14:25:01.870Z,45.10
2017-06-27T14:27:29.415Z,45.30
2017-06-27T14:29:56.919Z,44.90
2017-06-27T14:32:24.437Z,45.50
2017-06-27T14:34:52.017Z,45.50
2017-06-27T14:37:19.527Z,45.40
2017-06-27T14:39:47.075Z,46.10
2017-06-27T14:42:14.595Z,45.60
2017-06-27T14:44:42.149Z,46.50
2017-06-27T14:47:09.679Z,46.10
2017-06-27T14:49:37.234Z,46.80
2017-06-27T14:52:04.799Z,46.30
2017-06-27T14:54:32.354Z,46.50
2017-06-27T14:56:59.866Z,46.10
2017-06-27T14:59:27.407Z,45.70
2017-06-27T15:01:54.940Z,45.00
2017-06-27T15:04:22.478Z,45.00
2017-06-27T15:06:50.002Z,44.30
2017-06-27T15:09:17.529Z,43.10
2017-06-27T15:11:45.078Z,42.90
2017-06-27T15:14:12.614Z,43.80
2017-06-27T15:16:40.278Z,42.80
2017-06-27T15:19:07.925Z,43.90
2017-06-27T15:21:35.470Z,44.10
2017-06-27T15:24:02.994Z,44.60
2017-06-27T15:26:30.494Z,44.90
2017-06-27T15:28:58.052Z,44.90
2017-06-27T15:31:25.716Z,45.40
2017-06-27T15:33:53.278Z,45.60
2017-06-27T15:36:20.809Z,45.50
2017-06-27T15:38:48.403Z,46.00
2017-06-27T15:41:16.673Z,45.80
2017-06-27T15:43:44.966Z,46.20
2017-06-27T15:46:13.238Z,46.10
2017-06-27T15:48:40.753Z,46.10
2017-06-27T15:51:08.266Z,46.90
2017-06-27T15:53:35.794Z,47.30
2017-06-27T15:56:03.330Z,47.00
2017-06-27T15:58:30.954Z,47.30
2017-06-27T16:00:58.471Z,47.80
2017-06-27T16:03:26.053Z,48.40
2017-06-27T16:05:54.377Z,48.70
2017-06-27T16:08:21.906Z,48.70
2017-06-27T16:10:49.436Z,49.20
2017-06-27T16:13:16.971Z,49.60
2017-06-27T16:15:44.493Z,49.50
2017-06-27T16:18:12.011Z,49.90
2017-06-27T16:20:39.547Z,49.60
2017-06-27T16:23:07.091Z,49.80
2017-06-27T16:25:34.603Z,49.60
2017-06-27T16:28:02.127Z,50.20
2017-06-27T16:30:29.681Z,50.30
2017-06-27T16:32:57.205Z,50.20
2017-06-27T16:35:24.742Z,50.00
2017-06-27T16:37:52.307Z,50.10
2017-06-27T16:40:19.833Z,50.20
2017-06-27T16:42:47.363Z,50.10
2017-06-27T16:45:14.883Z,50.50
2017-06-27T16:47:42.400Z,50.60
2017-06-27T16:50:09.954Z,50.60
2017-06-27T16:52:37.471Z,50.90
2017-06-27T16:55:05.030Z,51.20
2017-06-27T16:57:32.564Z,51.20
2017-06-27T17:00:00.104Z,50.40
2017-06-27T17:02:27.609Z,51.80
2017-06-27T17:04:55.149Z,52.00
2017-06-27T17:07:22.676Z,51.90
2017-06-27T17:09:50.201Z,51.90
2017-06-27T17:12:17.701Z,52.10
2017-06-27T17:14:46.081Z,52.10
2017-06-27T17:17:13.598Z,52.00
2017-06-27T17:19:41.145Z,52.60
2017-06-27T17:22:08.693Z,52.10
2017-06-27T17:24:37.013Z,52.70
2017-06-27T17:27:04.519Z,52.70
2017-06-27T17:29:32.593Z,52.70
2017-06-27T17:32:00.106Z,52.60
2017-06-27T17:34:27.654Z,53.00
2017-06-27T17:36:55.194Z,52.80
2017-06-27T17:39:22.751Z,52.90
2017-06-27T17:41:50.286Z,54.80
2017-06-27T17:44:17.796Z,56.20
2017-06-27T17:46:45.333Z,56.40
2017-06-27T17:49:12.935Z,56.40
2017-06-27T17:51:40.466Z,57.20
2017-06-27T17:54:08.017Z,56.80
2017-06-27T17:56:35.547Z,56.50
2017-06-27T17:59:03.069Z,56.90
2017-06-27T18:01:30.598Z,58.50
2017-06-27T18:03:58.099Z,56.80
2017-06-27T18:06:25.662Z,57.60
2017-06-27T18:08:53.186Z,57.70
2017-06-27T18:11:20.718Z,57.10
2017-06-27T18:13:48.274Z,56.60
2017-06-27T18:16:15.794Z,57.80
2017-06-27T18:18:43.342Z,57.90
2017-06-27T18:21:10.883Z,57.60
2017-06-27T18:23:38.387Z,58.50
2017-06-27T18:26:05.926Z,57.80
2017-06-27T18:28:33.440Z,57.50
2017-06-27T18:31:01.017Z,57.60
2017-06-27T18:33:28.558Z,57.90
2017-06-27T18:35:56.109Z,57.40
2017-06-27T18:38:23.677Z,57.30
2017-06-27T18:40:51.217Z,57.50
2017-06-27T18:43:18.762Z,57.70
2017-06-27T18:45:46.298Z,57.80
2017-06-27T18:48:13.815Z,57.40
2017-06-27T18:50:41.346Z,57.00
2017-06-27T18:53:08.882Z,57.30
2017-06-27T18:55:36.407Z,57.10
2017-06-27T18:58:03.913Z,57.60
2017-06-27T19:00:31.475Z,57.50
2017-06-27T19:02:59.002Z,57.30
2017-06-27T19:05:31.482Z,57.30
2017-06-27T19:07:58.982Z,57.00
2017-06-27T19:10:26.502Z,57.70
2017-06-27T19:12:54.033Z,57.80
2017-06-27T19:15:21.549Z,58.10
2017-06-27T19:17:49.073Z,57.60
2017-06-27T19:20:16.575Z,58.80
2017-06-27T19:22:44.127Z,58.80
2017-06-27T19:25:11.661Z,59.20
2017-06-27T19:27:39.223Z,59.80
2017-06-27T19:30:06.721Z,59.70
2017-06-27T19:32:34.242Z,60.00
2017-06-27T19:35:01.803Z,59.40
2017-06-27T19:37:29.338Z,59.00
2017-06-27T19:39:56.896Z,59.10
2017-06-27T19:42:24.430Z,58.80
2017-06-27T19:44:51.954Z,59.60
2017-06-27T19:47:19.491Z,60.10
2017-06-27T19:49:47.014Z,59.60
2017-06-27T19:52:15.326Z,59.90
2017-06-27T19:54:42.830Z,59.80
2017-06-27T19:57:10.373Z,59.30
2017-06-27T19:59:37.910Z,59.40
2017-06-27T20:02:05.469Z,59.70
2017-06-27T20:04:32.974Z,58.70
2017-06-27T20:07:00.524Z,59.10
2017-06-27T20:09:28.048Z,59.40
2017-06-27T20:11:55.582Z,59.00
2017-06-27T20:14:23.101Z,59.50
2017-06-27T20:16:50.633Z,59.80
2017-06-27T20:19:18.161Z,59.10
2017-06-27T20:21:45.698Z,59.70
2017-06-27T20:24:13.209Z,59.80
2017-06-27T20:26:40.748Z,59.00
2017-06-27T20:29:08.287Z,59.50
2017-06-27T20:31:35.819Z,59.70
2017-06-27T20:34:03.326Z,59.60
2017-06-27T20:36:30.858Z,60.00
2017-06-27T20:38:58.403Z,60.40
2017-06-27T20:41:25.978Z,59.80
2017-06-27T20:43:53.777Z,60.10
2017-06-27T20:46:21.306Z,59.80
2017-06-27T20:48:48.837Z,59.60
2017-06-27T20:51:16.382Z,59.80
2017-06-27T20:53:43.923Z,60.40
2017-06-27T20:56:11.489Z,59.80
2017-06-27T20:58:39.034Z,59.90
2017-06-27T21:01:06.592Z,59.90
2017-06-27T21:03:34.154Z,60.50
2017-06-27T21:06:01.665Z,61.00
2017-06-27T21:08:29.193Z,61.10
2017-06-27T21:10:56.734Z,61.40
2017-06-27T21:13:24.291Z,61.30
2017-06-27T21:15:51.846Z,61.70
2017-06-27T21:18:19.384Z,61.10
2017-06-27T21:20:46.932Z,60.90
2017-06-27T21:23:14.491Z,61.00
2017-06-27T21:25:42.034Z,61.60
2017-06-27T21:28:09.590Z,61.30
2017-06-27T21:33:09.926Z,61.00
2017-06-27T21:35:37.458Z,61.10
2017-06-27T21:38:05.002Z,61.00
2017-06-27T21:40:32.511Z,60.70
2017-06-27T21:43:00.085Z,60.80
2017-06-27T21:45:27.634Z,60.10
2017-06-27T21:47:55.184Z,60.60
2017-06-27T21:50:22.729Z,60.30
2017-06-27T21:52:50.266Z,60.10
2017-06-27T21:55:17.807Z,60.50
2017-06-27T21:57:45.370Z,60.60
2017-06-27T22:00:12.898Z,60.60
2017-06-27T22:02:40.430Z,59.90
2017-06-27T22:05:07.953Z,60.70
2017-06-27T22:07:35.519Z,60.80
2017-06-27T22:10:03.026Z,60.80
2017-06-27T22:12:30.587Z,60.30
2017-06-27T22:14:58.102Z,60.60
2017-06-27T22:17:25.646Z,60.30
2017-06-27T22:19:53.205Z,60.50
2017-06-27T22:22:20.770Z,60.00
2017-06-27T22:24:48.297Z,60.80
2017-06-27T22:27:15.856Z,60.30
2017-06-27T22:29:43.390Z,61.30
2017-06-27T22:32:10.926Z,60.00
2017-06-27T22:34:38.475Z,59.70
2017-06-27T22:37:05.993Z,60.10
2017-06-27T22:39:33.527Z,59.60
2017-06-27T22:42:01.052Z,60.20
2017-06-27T22:44:28.607Z,59.60
2017-06-27T22:46:56.142Z,60.00
2017-06-27T22:49:23.692Z,60.00
2017-06-27T22:51:51.218Z,60.10
2017-06-27T22:54:18.779Z,60.10
2017-06-27T22:56:46.307Z,60.70
2017-06-27T22:59:13.874Z,60.40
2017-06-27T23:01:41.421Z,59.50
2017-06-27T23:04:08.963Z,60.00
2017-06-27T23:06:36.463Z,60.10
2017-06-27T23:09:03.991Z,60.10
2017-06-27T23:11:31.505Z,60.60
2017-06-27T23:13:59.037Z,60.00
2017-06-27T23:16:26.579Z,61.00
2017-06-27T23:18:54.131Z,60.90
2017-06-27T23:21:21.670Z,60.30
2017-06-27T23:23:49.222Z,61.00
2017-06-27T23:26:16.754Z,60.30
2017-06-27T23:28:44.291Z,60.40
2017-06-27T23:36:53.950Z,61.00
2017-06-27T23:39:22.242Z,61.60
2017-06-27T23:47:31.858Z,61.40
2017-06-27T23:49:59.426Z,61.10
2017-06-27T23:52:28.159Z,61.60
2017-06-27T23:54:55.811Z,61.50
2017-06-27T23:57:23.345Z,61.60
2017-06-27T23:59:50.950Z,61.40
